createdAt,value
2023-02-04T00:00:59.304Z,0
2023-02-04T00:01:59.370Z,0
2023-02-04T00:02:59.519Z,0
2023-02-04T00:03:59.210Z,0
2023-02-04T00:04:59.185Z,0
2023-02-04T00:05:59.159Z,0
2023-02-04T00:06:59.108Z,0
2023-02-04T00:07:59.116Z,0
2023-02-04T00:08:59.053Z,0
2023-02-04T00:09:59.049Z,0
2023-02-04T00:10:58.993Z,0
2023-02-04T00:11:58.979Z,0
2023-02-04T00:12:58.914Z,0
2023-02-04T00:13:58.874Z,0
2023-02-04T00:14:58.848Z,0
2023-02-04T00:15:59.003Z,0
2023-02-04T00:16:58.788Z,0
2023-02-04T00:17:58.843Z,0
2023-02-04T00:18:58.721Z,0
2023-02-04T00:19:58.702Z,0
2023-02-04T00:20:58.652Z,0
2023-02-04T00:21:58.689Z,0
2023-02-04T00:22:58.590Z,0
2023-02-04T00:24:00.936Z,0
2023-02-04T00:24:58.533Z,0
2023-02-04T00:25:58.498Z,0
2023-02-04T00:26:58.448Z,0
2023-02-04T00:27:58.697Z,0
2023-02-04T00:28:58.199Z,0
2023-02-04T00:29:58.358Z,0
2023-02-04T00:30:58.321Z,0
2023-02-04T00:31:58.968Z,0
2023-02-04T00:32:58.015Z,0
2023-02-04T00:33:58.414Z,0
2023-02-04T00:34:58.219Z,0
2023-02-04T00:35:58.162Z,0
2023-02-04T00:36:58.161Z,0
2023-02-04T00:37:58.196Z,0
2023-02-04T00:38:58.061Z,0
2023-02-04T00:39:58.038Z,0
2023-02-04T00:40:58.002Z,0
2023-02-04T00:41:57.986Z,0
2023-02-04T00:42:57.946Z,0
2023-02-04T00:43:57.912Z,0
2023-02-04T00:44:57.883Z,0
2023-02-04T00:45:58.104Z,0
2023-02-04T00:46:57.569Z,0
2023-02-04T00:47:57.770Z,0
2023-02-04T00:48:57.730Z,0
2023-02-04T00:49:57.807Z,0
2023-02-04T00:50:57.674Z,0
2023-02-04T00:51:57.636Z,0
2023-02-04T00:52:57.615Z,0
2023-02-04T00:53:57.586Z,0
2023-02-04T00:54:57.551Z,0
2023-02-04T00:55:57.528Z,0
2023-02-04T00:56:57.478Z,0
2023-02-04T00:57:57.453Z,0
2023-02-04T00:58:57.411Z,0
2023-02-04T00:59:57.381Z,0
2023-02-04T01:00:57.691Z,0
2023-02-04T01:01:57.342Z,0
2023-02-04T01:02:57.561Z,0
2023-02-04T01:03:57.269Z,0
2023-02-04T01:04:57.215Z,0
2023-02-04T01:05:57.292Z,0
2023-02-04T01:06:57.167Z,0
2023-02-04T01:07:57.147Z,0
2023-02-04T01:08:57.100Z,0
2023-02-04T01:09:57.066Z,0
2023-02-04T01:10:57.021Z,0
2023-02-04T01:11:56.989Z,0
2023-02-04T01:12:57.164Z,0
2023-02-04T01:13:56.925Z,0
2023-02-04T01:14:56.682Z,0
2023-02-04T01:15:56.873Z,0
2023-02-04T01:16:57.037Z,0
2023-02-04T01:17:56.819Z,0
2023-02-04T01:18:56.785Z,0
2023-02-04T01:19:56.740Z,0
2023-02-04T01:20:56.691Z,0
2023-02-04T01:21:56.753Z,0
2023-02-04T01:22:56.655Z,0
2023-02-04T01:23:56.606Z,0
2023-02-04T01:24:56.597Z,0
2023-02-04T01:25:56.543Z,0
2023-02-04T01:26:56.509Z,0
2023-02-04T01:27:56.685Z,0
2023-02-04T01:28:56.446Z,0
2023-02-04T01:29:56.444Z,0
2023-02-04T01:30:56.650Z,0
2023-02-04T01:31:56.712Z,0
2023-02-04T01:32:56.339Z,0
2023-02-04T01:33:56.268Z,0
2023-02-04T01:34:57.713Z,0
2023-02-04T01:35:56.229Z,0
2023-02-04T01:36:56.201Z,0
2023-02-04T01:37:56.256Z,0
2023-02-04T01:38:56.130Z,0
2023-02-04T01:39:56.087Z,0
2023-02-04T01:40:56.047Z,0
2023-02-04T01:41:56.014Z,0
2023-02-04T01:42:55.735Z,0
2023-02-04T01:43:55.937Z,0
2023-02-04T01:44:55.942Z,0
2023-02-04T01:45:56.149Z,0
2023-02-04T01:46:55.604Z,0
2023-02-04T01:47:55.865Z,0
2023-02-04T01:48:55.813Z,0
2023-02-04T01:49:55.773Z,0
2023-02-04T01:50:55.738Z,0
2023-02-04T01:51:55.681Z,0
2023-02-04T01:52:55.659Z,0
2023-02-04T01:53:55.803Z,0
2023-02-04T01:54:55.602Z,0
2023-02-04T01:55:55.557Z,0
2023-02-04T01:56:55.534Z,0
2023-02-04T01:57:55.489Z,0
2023-02-04T01:58:55.460Z,0
2023-02-04T01:59:55.446Z,0
2023-02-04T02:00:55.548Z,0
2023-02-04T02:01:55.486Z,0
2023-02-04T02:02:55.329Z,0
2023-02-04T02:03:55.286Z,0
2023-02-04T02:04:55.263Z,0
2023-02-04T02:05:55.241Z,0
2023-02-04T02:06:55.215Z,0
2023-02-04T02:07:55.191Z,0
2023-02-04T02:08:55.184Z,0
2023-02-04T02:09:55.277Z,0
2023-02-04T02:10:55.069Z,0
2023-02-04T02:11:55.031Z,0
2023-02-04T02:12:55.028Z,0
2023-02-04T02:13:54.980Z,0
2023-02-04T02:14:54.937Z,0
2023-02-04T02:15:54.926Z,0
2023-02-04T02:16:55.571Z,0
2023-02-04T02:17:54.877Z,0
2023-02-04T02:18:54.817Z,0
2023-02-04T02:19:54.782Z,0
2023-02-04T02:20:54.742Z,0
2023-02-04T02:21:54.747Z,0
2023-02-04T02:22:54.675Z,0
2023-02-04T02:23:54.411Z,0
2023-02-04T02:24:54.607Z,0
2023-02-04T02:25:54.701Z,0
2023-02-04T02:26:54.316Z,0
2023-02-04T02:27:54.676Z,0
2023-02-04T02:28:54.519Z,0
2023-02-04T02:29:54.451Z,0
2023-02-04T02:30:55.086Z,0
2023-02-04T02:31:54.923Z,0
2023-02-04T02:32:54.363Z,0
2023-02-04T02:33:54.333Z,0
2023-02-04T02:34:54.280Z,0
2023-02-04T02:35:54.274Z,0
2023-02-04T02:36:54.220Z,0
2023-02-04T02:37:54.211Z,0
2023-02-04T02:38:54.161Z,0
2023-02-04T02:39:54.132Z,0
2023-02-04T02:40:54.104Z,0
2023-02-04T02:41:54.156Z,0
2023-02-04T02:42:54.024Z,0
2023-02-04T02:43:53.993Z,0
2023-02-04T02:44:54.018Z,0
2023-02-04T02:45:54.342Z,0
2023-02-04T02:46:53.916Z,0
2023-02-04T02:47:53.906Z,0
2023-02-04T02:48:53.828Z,0
2023-02-04T02:49:53.798Z,0
2023-02-04T02:50:53.749Z,0
2023-02-04T02:51:53.737Z,0
2023-02-04T02:52:53.740Z,0
2023-02-04T02:53:53.657Z,0
2023-02-04T02:54:53.659Z,0
2023-02-04T02:55:53.610Z,0
2023-02-04T02:56:53.603Z,0
2023-02-04T02:57:53.638Z,0
2023-02-04T02:58:53.502Z,0
2023-02-04T02:59:53.477Z,0
2023-02-04T03:00:53.552Z,0
2023-02-04T03:01:53.419Z,0
2023-02-04T03:02:53.584Z,0
2023-02-04T03:03:53.382Z,0
2023-02-04T03:04:53.308Z,0
2023-02-04T03:05:53.271Z,0
2023-02-04T03:06:53.226Z,0
2023-02-04T03:07:53.214Z,0
2023-02-04T03:08:53.159Z,0
2023-02-04T03:09:53.144Z,0
2023-02-04T03:10:52.896Z,0
2023-02-04T03:11:53.110Z,0
2023-02-04T03:12:53.044Z,0
2023-02-04T03:13:53.129Z,0
2023-02-04T03:14:52.986Z,0
2023-02-04T03:15:53.140Z,0
2023-02-04T03:16:52.912Z,0
2023-02-04T03:17:52.868Z,0
2023-02-04T03:18:52.837Z,0
2023-02-04T03:19:52.803Z,0
2023-02-04T03:20:52.788Z,0
2023-02-04T03:21:52.759Z,0
2023-02-04T03:22:52.740Z,0
2023-02-04T03:23:52.670Z,0
2023-02-04T03:24:52.649Z,0
2023-02-04T03:25:52.406Z,0
2023-02-04T03:26:52.667Z,0
2023-02-04T03:27:52.730Z,0
2023-02-04T03:28:52.529Z,0
2023-02-04T03:29:52.600Z,0
2023-02-04T03:30:52.926Z,0
2023-02-04T03:31:53.065Z,0
2023-02-04T03:32:52.381Z,0
2023-02-04T03:33:52.363Z,0
2023-02-04T03:34:52.327Z,0
2023-02-04T03:35:52.286Z,0
2023-02-04T03:36:52.304Z,0
2023-02-04T03:37:52.231Z,0
2023-02-04T03:38:52.209Z,0
2023-02-04T03:39:52.156Z,0
2023-02-04T03:40:52.171Z,0
2023-02-04T03:41:52.119Z,0
2023-02-04T03:42:52.088Z,0
2023-02-04T03:43:52.046Z,0
2023-02-04T03:44:52.005Z,0
2023-02-04T03:45:53.143Z,0
2023-02-04T03:46:51.933Z,0
2023-02-04T03:47:51.899Z,0
2023-02-04T03:48:51.873Z,0
2023-02-04T03:49:51.835Z,0
2023-02-04T03:50:51.808Z,0
2023-02-04T03:51:51.781Z,0
2023-02-04T03:52:51.747Z,0
2023-02-04T03:53:51.715Z,0
2023-02-04T03:54:51.428Z,0
2023-02-04T03:55:51.641Z,0
2023-02-04T03:56:51.604Z,0
2023-02-04T03:57:51.585Z,0
2023-02-04T03:58:51.535Z,0
2023-02-04T03:59:51.529Z,0
2023-02-04T04:00:51.484Z,0
2023-02-04T04:01:51.863Z,0
2023-02-04T04:02:51.792Z,0
2023-02-04T04:03:51.392Z,0
2023-02-04T04:04:51.362Z,0
2023-02-04T04:05:51.319Z,0
2023-02-04T04:06:51.279Z,0
2023-02-04T04:07:51.250Z,0
2023-02-04T04:08:51.244Z,0
2023-02-04T04:09:51.191Z,0
2023-02-04T04:10:51.163Z,0
2023-02-04T04:11:51.217Z,0
2023-02-04T04:12:51.099Z,0
2023-02-04T04:13:51.099Z,0
2023-02-04T04:14:51.016Z,0
2023-02-04T04:15:51.112Z,0
2023-02-04T04:16:50.963Z,0
2023-02-04T04:17:51.104Z,0
2023-02-04T04:18:50.902Z,0
2023-02-04T04:19:50.855Z,0
2023-02-04T04:20:50.838Z,0
2023-02-04T04:21:50.800Z,0
2023-02-04T04:22:50.753Z,0
2023-02-04T04:23:50.502Z,0
2023-02-04T04:24:50.688Z,0
2023-02-04T04:25:50.661Z,0
2023-02-04T04:26:50.642Z,0
2023-02-04T04:27:50.876Z,0
2023-02-04T04:28:50.579Z,0
2023-02-04T04:29:50.538Z,0
2023-02-04T04:30:50.743Z,0
2023-02-04T04:31:50.760Z,0
2023-02-04T04:32:50.445Z,0
2023-02-04T04:33:50.504Z,0
2023-02-04T04:34:50.389Z,0
2023-02-04T04:35:50.334Z,0
2023-02-04T04:36:50.296Z,0
2023-02-04T04:37:50.272Z,0
2023-02-04T04:38:50.241Z,0
2023-02-04T04:39:50.210Z,0
2023-02-04T04:40:50.179Z,0
2023-02-04T04:41:50.134Z,0
2023-02-04T04:42:50.100Z,0
2023-02-04T04:43:50.070Z,0
2023-02-04T04:44:50.063Z,0
2023-02-04T04:45:50.016Z,0
2023-02-04T04:46:50.272Z,0
2023-02-04T04:47:49.945Z,0
2023-02-04T04:48:49.900Z,0
2023-02-04T04:49:49.995Z,0
2023-02-04T04:50:49.833Z,0
2023-02-04T04:51:49.802Z,0
2023-02-04T04:52:49.772Z,0
2023-02-04T04:53:49.752Z,0
2023-02-04T04:54:49.709Z,0
2023-02-04T04:55:49.675Z,0
2023-02-04T04:56:49.630Z,0
2023-02-04T04:57:49.610Z,0
2023-02-04T04:58:49.612Z,0
2023-02-04T04:59:49.547Z,0
2023-02-04T05:00:49.715Z,0
2023-02-04T05:01:49.487Z,0
2023-02-04T05:02:49.443Z,0
2023-02-04T05:03:49.440Z,0
2023-02-04T05:04:49.618Z,0
2023-02-04T05:05:49.450Z,0
2023-02-04T05:06:49.448Z,0
2023-02-04T05:07:49.049Z,0
2023-02-04T05:08:49.259Z,0
2023-02-04T05:09:49.217Z,0
2023-02-04T05:10:49.204Z,0
2023-02-04T05:11:49.156Z,0
2023-02-04T05:12:49.118Z,0
2023-02-04T05:13:49.153Z,0
2023-02-04T05:14:49.060Z,0
2023-02-04T05:15:49.038Z,0
2023-02-04T05:16:49.137Z,0
2023-02-04T05:17:48.962Z,0
2023-02-04T05:18:48.704Z,0
2023-02-04T05:19:48.934Z,0
2023-02-04T05:20:48.866Z,0
2023-02-04T05:21:48.949Z,0
2023-02-04T05:22:48.806Z,0
2023-02-04T05:23:48.780Z,0
2023-02-04T05:24:48.742Z,0
2023-02-04T05:25:48.701Z,0
2023-02-04T05:26:48.678Z,0
2023-02-04T05:27:48.783Z,0
2023-02-04T05:28:48.628Z,0
2023-02-04T05:29:48.576Z,0
2023-02-04T05:30:48.742Z,0
2023-02-04T05:31:48.818Z,0
2023-02-04T05:32:48.480Z,0
2023-02-04T05:33:48.446Z,0
2023-02-04T05:34:48.422Z,0
2023-02-04T05:35:49.877Z,0
2023-02-04T05:36:48.392Z,0
2023-02-04T05:37:48.416Z,0
2023-02-04T05:38:48.294Z,0
2023-02-04T05:39:48.246Z,0
2023-02-04T05:40:48.211Z,0
2023-02-04T05:41:48.169Z,0
2023-02-04T05:42:48.144Z,0
2023-02-04T05:43:48.132Z,0
2023-02-04T05:44:48.134Z,0
2023-02-04T05:45:48.260Z,0
2023-02-04T05:46:48.030Z,0
2023-02-04T05:47:47.799Z,0
2023-02-04T05:48:47.954Z,0
2023-02-04T05:49:47.915Z,0
2023-02-04T05:50:47.882Z,0
2023-02-04T05:51:47.869Z,0
2023-02-04T05:52:47.817Z,0
2023-02-04T05:53:47.960Z,0
2023-02-04T05:54:47.759Z,0
2023-02-04T05:55:47.718Z,0
2023-02-04T05:56:47.688Z,0
2023-02-04T05:57:47.664Z,0
2023-02-04T05:58:47.640Z,0
2023-02-04T05:59:47.597Z,0
2023-02-04T06:00:47.557Z,0
2023-02-04T06:01:47.532Z,0
2023-02-04T06:02:47.502Z,0
2023-02-04T06:03:47.521Z,0
2023-02-04T06:04:49.590Z,0
2023-02-04T06:05:47.406Z,0
2023-02-04T06:06:47.365Z,0
2023-02-04T06:07:47.350Z,0
2023-02-04T06:08:47.301Z,0
2023-02-04T06:09:47.363Z,0
2023-02-04T06:10:47.253Z,0
2023-02-04T06:11:47.209Z,0
2023-02-04T06:12:47.190Z,0
2023-02-04T06:13:47.138Z,0
2023-02-04T06:14:47.101Z,0
2023-02-04T06:15:47.121Z,0
2023-02-04T06:16:47.333Z,0
2023-02-04T06:17:47.016Z,0
2023-02-04T06:18:46.974Z,0
2023-02-04T06:19:46.965Z,0
2023-02-04T06:20:46.917Z,0
2023-02-04T06:21:46.881Z,0
2023-02-04T06:22:46.846Z,0
2023-02-04T06:23:46.817Z,0
2023-02-04T06:24:49.587Z,0
2023-02-04T06:25:46.841Z,0
2023-02-04T06:26:46.712Z,0
2023-02-04T06:27:46.625Z,0
2023-02-04T06:28:46.656Z,0
2023-02-04T06:29:46.611Z,0
2023-02-04T06:30:46.894Z,4
2023-02-04T06:31:47.070Z,4
2023-02-04T06:32:46.290Z,0
2023-02-04T06:33:46.488Z,0
2023-02-04T06:34:46.457Z,4
2023-02-04T06:35:46.417Z,0
2023-02-04T06:36:46.413Z,4
2023-02-04T06:37:46.354Z,4
2023-02-04T06:38:46.324Z,4
2023-02-04T06:39:46.043Z,8
2023-02-04T06:40:46.294Z,8
2023-02-04T06:41:46.293Z,8
2023-02-04T06:42:46.201Z,12
2023-02-04T06:43:46.184Z,8
2023-02-04T06:44:46.159Z,12
2023-02-04T06:45:46.113Z,12
2023-02-04T06:46:46.073Z,16
2023-02-04T06:47:46.029Z,20
2023-02-04T06:48:46.010Z,12
2023-02-04T06:49:45.972Z,20
2023-02-04T06:50:45.957Z,16
2023-02-04T06:51:45.917Z,24
2023-02-04T06:52:45.871Z,28
2023-02-04T06:53:45.989Z,40
2023-02-04T06:54:45.832Z,72
2023-02-04T06:55:45.802Z,76
2023-02-04T06:56:45.771Z,84
2023-02-04T06:57:45.771Z,96
2023-02-04T06:58:45.673Z,108
2023-02-04T06:59:45.635Z,120
2023-02-04T07:00:45.624Z,132
2023-02-04T07:01:46.085Z,144
2023-02-04T07:02:45.749Z,156
2023-02-04T07:03:45.516Z,168
2023-02-04T07:04:47.480Z,184
2023-02-04T07:05:45.443Z,204
2023-02-04T07:06:45.429Z,224
2023-02-04T07:07:45.383Z,236
2023-02-04T07:08:45.362Z,252
2023-02-04T07:09:45.176Z,276
2023-02-04T07:10:45.291Z,300
2023-02-04T07:11:45.256Z,324
2023-02-04T07:12:45.247Z,360
2023-02-04T07:13:45.257Z,400
2023-02-04T07:14:45.175Z,436
2023-02-04T07:15:45.323Z,448
2023-02-04T07:16:45.097Z,452
2023-02-04T07:17:45.060Z,464
2023-02-04T07:18:45.037Z,480
2023-02-04T07:19:44.989Z,508
2023-02-04T07:20:44.965Z,540
2023-02-04T07:21:44.951Z,572
2023-02-04T07:22:44.967Z,620
2023-02-04T07:23:44.857Z,664
2023-02-04T07:24:44.869Z,704
2023-02-04T07:25:44.803Z,744
2023-02-04T07:26:44.779Z,828
2023-02-04T07:27:44.814Z,916
2023-02-04T07:28:44.737Z,992
2023-02-04T07:29:44.748Z,1096
2023-02-04T07:30:45.105Z,1224
2023-02-04T07:31:45.161Z,1324
2023-02-04T07:32:44.648Z,1404
2023-02-04T07:33:44.537Z,1472
2023-02-04T07:34:44.512Z,1528
2023-02-04T07:35:44.475Z,1612
2023-02-04T07:36:44.586Z,1680
2023-02-04T07:37:44.456Z,1716
2023-02-04T07:38:44.370Z,1732
2023-02-04T07:39:45.995Z,1740
2023-02-04T07:40:44.591Z,1756
2023-02-04T07:41:44.269Z,1672
2023-02-04T07:42:44.293Z,1604
2023-02-04T07:43:44.200Z,1652
2023-02-04T07:44:44.197Z,1716
2023-02-04T07:45:44.220Z,1776
2023-02-04T07:46:44.187Z,1836
2023-02-04T07:47:44.097Z,1896
2023-02-04T07:48:44.045Z,1944
2023-02-04T07:49:44.013Z,2000
2023-02-04T07:50:43.979Z,2068
2023-02-04T07:51:43.715Z,2140
2023-02-04T07:52:43.910Z,2224
2023-02-04T07:53:43.893Z,2316
2023-02-04T07:54:43.872Z,2404
2023-02-04T07:55:43.811Z,2508
2023-02-04T07:56:43.790Z,2628
2023-02-04T07:57:43.773Z,2788
2023-02-04T07:58:43.714Z,2980
2023-02-04T07:59:43.680Z,3168
2023-02-04T08:00:43.680Z,3324
2023-02-04T08:01:44.005Z,3444
2023-02-04T08:02:43.769Z,3524
2023-02-04T08:03:46.552Z,3612
2023-02-04T08:04:43.300Z,3724
2023-02-04T08:05:43.513Z,3844
2023-02-04T08:06:43.458Z,3876
2023-02-04T08:07:43.190Z,3804
2023-02-04T08:08:43.162Z,3756
2023-02-04T08:09:43.369Z,3748
2023-02-04T08:10:43.330Z,3700
2023-02-04T08:11:43.088Z,3668
2023-02-04T08:12:43.284Z,3672
2023-02-04T08:13:43.242Z,3692
2023-02-04T08:14:43.212Z,3732
2023-02-04T08:15:43.366Z,3820
2023-02-04T08:16:43.193Z,3928
2023-02-04T08:17:43.241Z,4036
2023-02-04T08:18:43.086Z,4172
2023-02-04T08:19:43.040Z,4312
2023-02-04T08:20:43.009Z,4416
2023-02-04T08:21:42.969Z,4428
2023-02-04T08:22:42.964Z,4368
2023-02-04T08:23:42.914Z,4292
2023-02-04T08:24:42.887Z,4276
2023-02-04T08:25:42.850Z,4300
2023-02-04T08:26:42.836Z,4352
2023-02-04T08:27:42.952Z,4380
2023-02-04T08:28:42.770Z,4416
2023-02-04T08:29:42.725Z,4440
2023-02-04T08:30:42.932Z,4460
2023-02-04T08:31:43.285Z,4448
2023-02-04T08:32:42.422Z,4432
2023-02-04T08:33:42.671Z,4348
2023-02-04T08:34:42.594Z,4184
2023-02-04T08:35:42.525Z,4012
2023-02-04T08:36:42.509Z,3888
2023-02-04T08:37:42.485Z,3852
2023-02-04T08:38:43.250Z,3780
2023-02-04T08:39:42.425Z,3668
2023-02-04T08:40:42.400Z,3608
2023-02-04T08:41:42.356Z,3756
2023-02-04T08:42:42.320Z,4100
2023-02-04T08:43:42.417Z,4484
2023-02-04T08:44:42.013Z,4692
2023-02-04T08:45:42.223Z,4776
2023-02-04T08:46:42.533Z,4856
2023-02-04T08:47:42.236Z,5056
2023-02-04T08:48:42.180Z,5372
2023-02-04T08:49:42.204Z,5564
2023-02-04T08:50:43.898Z,5704
2023-02-04T08:51:42.077Z,5864
2023-02-04T08:52:42.028Z,5868
2023-02-04T08:53:42.013Z,5624
2023-02-04T08:54:41.955Z,5344
2023-02-04T08:55:41.925Z,5280
2023-02-04T08:56:44.221Z,5292
2023-02-04T08:57:41.884Z,5200
2023-02-04T08:58:41.850Z,5180
2023-02-04T08:59:41.800Z,5356
2023-02-04T09:00:42.508Z,5700
2023-02-04T09:01:41.909Z,6068
2023-02-04T09:02:41.788Z,6412
2023-02-04T09:03:41.702Z,6596
2023-02-04T09:04:41.684Z,6680
2023-02-04T09:05:41.698Z,6744
2023-02-04T09:06:41.606Z,6796
2023-02-04T09:07:41.546Z,6892
2023-02-04T09:08:41.555Z,6880
2023-02-04T09:09:41.512Z,6884
2023-02-04T09:10:41.610Z,6968
2023-02-04T09:11:41.437Z,7016
2023-02-04T09:12:41.415Z,6940
2023-02-04T09:13:41.384Z,6972
2023-02-04T09:14:41.340Z,7144
2023-02-04T09:15:41.321Z,7304
2023-02-04T09:16:41.598Z,7440
2023-02-04T09:17:41.260Z,7300
2023-02-04T09:18:41.205Z,7408
2023-02-04T09:19:41.190Z,7208
2023-02-04T09:20:41.582Z,7256
2023-02-04T09:21:41.203Z,7456
2023-02-04T09:22:41.091Z,7612
2023-02-04T09:23:41.072Z,7668
2023-02-04T09:24:41.034Z,7568
2023-02-04T09:25:41.000Z,7604
2023-02-04T09:26:40.986Z,7600
2023-02-04T09:27:40.860Z,7488
2023-02-04T09:28:40.924Z,7300
2023-02-04T09:29:40.894Z,7060
2023-02-04T09:30:41.483Z,7140
2023-02-04T09:31:41.197Z,7500
2023-02-04T09:32:40.792Z,8136
2023-02-04T09:33:40.867Z,8916
2023-02-04T09:34:40.728Z,9808
2023-02-04T09:35:40.714Z,11004
2023-02-04T09:36:40.690Z,11680
2023-02-04T09:37:40.710Z,11868
2023-02-04T09:38:40.604Z,11176
2023-02-04T09:39:40.586Z,11180
2023-02-04T09:40:40.995Z,11080
2023-02-04T09:41:42.327Z,10724
2023-02-04T09:42:40.478Z,10764
2023-02-04T09:43:40.461Z,10608
2023-02-04T09:44:40.422Z,10472
2023-02-04T09:45:40.703Z,10552
2023-02-04T09:46:40.364Z,10456
2023-02-04T09:47:40.347Z,10636
2023-02-04T09:48:40.322Z,11696
2023-02-04T09:49:40.286Z,11168
2023-02-04T09:50:40.969Z,11404
2023-02-04T09:51:40.220Z,11996
2023-02-04T09:52:40.202Z,10880
2023-02-04T09:53:40.225Z,11372
2023-02-04T09:54:40.132Z,11388
2023-02-04T09:55:40.114Z,11680
2023-02-04T09:56:40.127Z,12040
2023-02-04T09:57:40.059Z,12504
2023-02-04T09:58:40.006Z,12796
2023-02-04T09:59:39.962Z,12272
2023-02-04T10:00:40.461Z,11904
2023-02-04T10:01:39.896Z,12156
2023-02-04T10:02:39.870Z,12068
2023-02-04T10:03:40.158Z,11484
2023-02-04T10:04:39.808Z,10992
2023-02-04T10:05:39.777Z,10952
2023-02-04T10:06:39.764Z,11384
2023-02-04T10:07:39.753Z,11996
2023-02-04T10:08:39.737Z,13064
2023-02-04T10:09:39.752Z,13824
2023-02-04T10:10:40.088Z,14096
2023-02-04T10:11:39.597Z,13672
2023-02-04T10:12:39.590Z,13212
2023-02-04T10:13:39.580Z,12588
2023-02-04T10:14:39.510Z,12420
2023-02-04T10:15:39.485Z,12960
2023-02-04T10:16:39.697Z,14948
2023-02-04T10:17:39.455Z,15120
2023-02-04T10:18:39.408Z,14168
2023-02-04T10:19:39.370Z,12760
2023-02-04T10:20:39.793Z,11936
2023-02-04T10:21:39.529Z,10576
2023-02-04T10:22:39.390Z,9696
2023-02-04T10:23:39.259Z,8480
2023-02-04T10:24:39.257Z,8112
2023-02-04T10:25:39.279Z,7804
2023-02-04T10:26:39.175Z,7704
2023-02-04T10:27:39.191Z,7704
2023-02-04T10:28:39.111Z,7588
2023-02-04T10:29:39.074Z,7208
2023-02-04T10:30:40.547Z,6860
2023-02-04T10:31:39.932Z,6280
2023-02-04T10:32:38.997Z,5784
2023-02-04T10:33:38.967Z,5548
2023-02-04T10:34:38.959Z,5504
2023-02-04T10:35:38.903Z,5716
2023-02-04T10:36:38.887Z,6276
2023-02-04T10:37:38.877Z,7080
2023-02-04T10:38:38.820Z,7600
2023-02-04T10:39:38.798Z,7664
2023-02-04T10:40:39.795Z,7792
2023-02-04T10:41:38.935Z,8124
2023-02-04T10:42:38.740Z,8500
2023-02-04T10:43:38.693Z,8700
2023-02-04T10:44:38.685Z,8860
2023-02-04T10:45:38.624Z,9140
2023-02-04T10:46:38.631Z,9344
2023-02-04T10:47:38.924Z,9980
2023-02-04T10:48:38.528Z,11144
2023-02-04T10:49:38.490Z,11808
2023-02-04T10:50:39.229Z,12404
2023-02-04T10:51:38.441Z,12344
2023-02-04T10:52:38.411Z,11732
2023-02-04T10:53:38.435Z,11168
2023-02-04T10:54:38.358Z,11080
2023-02-04T10:55:38.322Z,11240
2023-02-04T10:56:38.110Z,11636
2023-02-04T10:57:38.338Z,12244
2023-02-04T10:58:37.991Z,12556
2023-02-04T10:59:38.218Z,11964
2023-02-04T11:00:39.006Z,12080
2023-02-04T11:01:38.398Z,12444
2023-02-04T11:02:38.109Z,13036
2023-02-04T11:03:38.314Z,13612
2023-02-04T11:04:38.133Z,14180
2023-02-04T11:05:38.143Z,14328
2023-02-04T11:06:37.994Z,14380
2023-02-04T11:07:37.980Z,14500
2023-02-04T11:08:37.946Z,14688
2023-02-04T11:09:37.912Z,14996
2023-02-04T11:10:39.096Z,15152
2023-02-04T11:11:37.844Z,15208
2023-02-04T11:12:37.842Z,15324
2023-02-04T11:13:37.862Z,15440
2023-02-04T11:14:37.762Z,15472
2023-02-04T11:15:37.980Z,15304
2023-02-04T11:16:37.890Z,14732
2023-02-04T11:17:37.687Z,13676
2023-02-04T11:18:37.662Z,12304
2023-02-04T11:19:37.675Z,11368
2023-02-04T11:20:38.635Z,10656
2023-02-04T11:21:37.354Z,10328
2023-02-04T11:22:37.594Z,10552
2023-02-04T11:23:37.517Z,10976
2023-02-04T11:24:37.510Z,11420
2023-02-04T11:25:38.634Z,11396
2023-02-04T11:26:37.204Z,11080
2023-02-04T11:27:37.406Z,10308
2023-02-04T11:28:37.393Z,9472
2023-02-04T11:29:37.417Z,8796
2023-02-04T11:30:37.309Z,8360
2023-02-04T11:31:37.968Z,8336
2023-02-04T11:32:37.238Z,8260
2023-02-04T11:33:37.220Z,8088
2023-02-04T11:34:37.215Z,7864
2023-02-04T11:35:38.054Z,7856
2023-02-04T11:36:37.141Z,8072
2023-02-04T11:37:37.111Z,8556
2023-02-04T11:38:37.075Z,9260
2023-02-04T11:39:37.068Z,10028
2023-02-04T11:40:37.021Z,10780
2023-02-04T11:41:37.041Z,11404
2023-02-04T11:42:36.963Z,11760
2023-02-04T11:43:36.931Z,11856
2023-02-04T11:44:36.956Z,11696
2023-02-04T11:45:38.039Z,11636
2023-02-04T11:46:37.046Z,11540
2023-02-04T11:47:36.812Z,11472
2023-02-04T11:48:36.812Z,11568
2023-02-04T11:49:36.772Z,11724
2023-02-04T11:50:36.729Z,11708
2023-02-04T11:51:36.727Z,11608
2023-02-04T11:52:36.746Z,11624
2023-02-04T11:53:36.716Z,11708
2023-02-04T11:54:36.633Z,11880
2023-02-04T11:55:37.324Z,12064
2023-02-04T11:56:36.589Z,12260
2023-02-04T11:57:36.546Z,12448
2023-02-04T11:58:36.666Z,12440
2023-02-04T11:59:36.487Z,12352
2023-02-04T12:00:36.527Z,12304
2023-02-04T12:01:36.501Z,12344
2023-02-04T12:02:36.631Z,12396
2023-02-04T12:03:36.645Z,12188
2023-02-04T12:04:36.327Z,12244
2023-02-04T12:05:36.923Z,12040
2023-02-04T12:06:36.293Z,11832
2023-02-04T12:07:36.435Z,11784
2023-02-04T12:08:36.221Z,11984
2023-02-04T12:09:36.186Z,12124
2023-02-04T12:10:36.177Z,12156
2023-02-04T12:11:36.132Z,12284
2023-02-04T12:12:36.105Z,12576
2023-02-04T12:13:37.882Z,13188
2023-02-04T12:14:36.060Z,13512
2023-02-04T12:15:36.995Z,13096
2023-02-04T12:16:36.052Z,12844
2023-02-04T12:17:36.033Z,12968
2023-02-04T12:18:35.961Z,12068
2023-02-04T12:19:35.898Z,11376
2023-02-04T12:20:36.018Z,11276
2023-02-04T12:21:35.831Z,11400
2023-02-04T12:22:35.822Z,11568
2023-02-04T12:23:35.804Z,11532
2023-02-04T12:24:35.756Z,11812
2023-02-04T12:25:36.669Z,11764
2023-02-04T12:26:35.712Z,11412
2023-02-04T12:27:35.668Z,11232
2023-02-04T12:28:35.642Z,11240
2023-02-04T12:29:35.389Z,11160
2023-02-04T12:30:35.658Z,11488
2023-02-04T12:31:36.033Z,11452
2023-02-04T12:32:35.551Z,11208
2023-02-04T12:33:35.670Z,11604
2023-02-04T12:34:35.466Z,12072
2023-02-04T12:35:36.145Z,12292
2023-02-04T12:36:35.411Z,12280
2023-02-04T12:37:35.389Z,11936
2023-02-04T12:38:35.372Z,11516
2023-02-04T12:39:35.342Z,11140
2023-02-04T12:40:35.310Z,10712
2023-02-04T12:41:35.318Z,10356
2023-02-04T12:42:35.277Z,10356
2023-02-04T12:43:35.656Z,10656
2023-02-04T12:44:35.192Z,10952
2023-02-04T12:45:36.154Z,10980
2023-02-04T12:46:35.306Z,10812
2023-02-04T12:47:35.103Z,10512
2023-02-04T12:48:35.367Z,10160
2023-02-04T12:49:35.153Z,9768
2023-02-04T12:50:35.009Z,9356
2023-02-04T12:51:34.991Z,9040
2023-02-04T12:52:34.760Z,9240
2023-02-04T12:53:34.680Z,9236
2023-02-04T12:54:34.890Z,9228
2023-02-04T12:55:35.771Z,9288
2023-02-04T12:56:34.843Z,9520
2023-02-04T12:57:34.839Z,9764
2023-02-04T12:58:34.776Z,10076
2023-02-04T12:59:34.768Z,10212
2023-02-04T13:00:35.052Z,10272
2023-02-04T13:01:34.764Z,10312
2023-02-04T13:02:34.678Z,10240
2023-02-04T13:03:34.649Z,10160
2023-02-04T13:04:34.630Z,10168
2023-02-04T13:05:35.295Z,10264
2023-02-04T13:06:34.563Z,10232
2023-02-04T13:07:34.607Z,10160
2023-02-04T13:08:34.489Z,10132
2023-02-04T13:09:34.245Z,10316
2023-02-04T13:10:34.433Z,10520
2023-02-04T13:11:34.513Z,10620
2023-02-04T13:12:34.381Z,10708
2023-02-04T13:13:34.360Z,10816
2023-02-04T13:14:34.326Z,10900
2023-02-04T13:15:35.075Z,10848
2023-02-04T13:16:34.246Z,10868
2023-02-04T13:17:33.994Z,10816
2023-02-04T13:18:34.215Z,10700
2023-02-04T13:19:34.177Z,10652
2023-02-04T13:20:34.177Z,10600
2023-02-04T13:21:34.290Z,10400
2023-02-04T13:22:34.155Z,9872
2023-02-04T13:23:34.071Z,9220
2023-02-04T13:24:34.029Z,8700
2023-02-04T13:25:34.868Z,8456
2023-02-04T13:26:33.985Z,8524
2023-02-04T13:27:33.941Z,8644
2023-02-04T13:28:33.922Z,8492
2023-02-04T13:29:33.924Z,8188
2023-02-04T13:30:34.056Z,8072
2023-02-04T13:31:34.187Z,7800
2023-02-04T13:32:33.809Z,7620
2023-02-04T13:33:33.772Z,7584
2023-02-04T13:34:33.750Z,7572
2023-02-04T13:35:34.579Z,7576
2023-02-04T13:36:33.728Z,7720
2023-02-04T13:37:33.807Z,7856
2023-02-04T13:38:33.639Z,7904
2023-02-04T13:39:33.611Z,7904
2023-02-04T13:40:33.584Z,7944
2023-02-04T13:41:33.575Z,8088
2023-02-04T13:42:33.538Z,8256
2023-02-04T13:43:33.488Z,8396
2023-02-04T13:44:33.542Z,8592
2023-02-04T13:45:34.596Z,8648
2023-02-04T13:46:33.452Z,8656
2023-02-04T13:47:33.392Z,8768
2023-02-04T13:48:34.003Z,8872
2023-02-04T13:49:33.346Z,9000
2023-02-04T13:50:34.002Z,9004
2023-02-04T13:51:33.277Z,8972
2023-02-04T13:52:33.327Z,8992
2023-02-04T13:53:33.336Z,9120
2023-02-04T13:54:33.210Z,9136